createdAt,value
2023-03-11T00:00:53.209Z,0.02
2023-03-11T00:03:27.479Z,0.05
2023-03-11T00:06:04.083Z,0.07
2023-03-11T00:08:36.366Z,0.05
2023-03-11T00:11:08.717Z,0.07
2023-03-11T00:13:41.174Z,0.04
2023-03-11T00:16:12.771Z,0.12
2023-03-11T00:18:44.584Z,0.06
2023-03-11T00:21:21.742Z,0.05
2023-03-11T00:23:53.629Z,0.09
2023-03-11T00:26:25.456Z,0.11
2023-03-11T00:28:57.261Z,0.05
2023-03-11T00:31:29.044Z,0.05
2023-03-11T00:34:01.058Z,0.03
2023-03-11T00:36:36.174Z,-0.03
2023-03-11T00:39:11.060Z,0.00
2023-03-11T00:41:42.893Z,0.02
2023-03-11T00:44:14.706Z,-0.02
2023-03-11T00:46:46.683Z,0.02
2023-03-11T00:49:18.561Z,-0.02
2023-03-11T00:51:51.779Z,-0.11
2023-03-11T00:54:23.673Z,0.03
2023-03-11T00:56:55.655Z,-0.06
2023-03-11T00:59:27.464Z,-0.05
2023-03-11T01:01:59.351Z,-0.05
2023-03-11T01:04:31.269Z,0.02
2023-03-11T01:07:04.757Z,0.01
2023-03-11T01:09:36.631Z,-0.05
2023-03-11T01:12:09.311Z,-0.08
2023-03-11T01:14:41.211Z,-0.02
2023-03-11T01:17:13.096Z,0.00
2023-03-11T01:19:45.348Z,0.00
2023-03-11T01:22:19.103Z,0.01
2023-03-11T01:24:51.025Z,-0.09
2023-03-11T01:27:22.998Z,-0.05
2023-03-11T01:29:54.804Z,-0.08
2023-03-11T01:32:26.719Z,-0.05
2023-03-11T01:34:58.671Z,-0.06
2023-03-11T01:37:32.067Z,-0.07
2023-03-11T01:40:03.922Z,-0.12
2023-03-11T01:42:34.115Z,-0.19
2023-03-11T01:45:19.758Z,-0.19
2023-03-11T01:47:51.312Z,-0.14
2023-03-11T01:50:23.451Z,-0.24
2023-03-11T01:52:56.969Z,-0.14
2023-03-11T01:55:30.037Z,-0.10
2023-03-11T01:58:05.611Z,-0.06
2023-03-11T02:00:38.430Z,-0.11
2023-03-11T02:03:19.712Z,-0.12
2023-03-11T02:05:55.628Z,-0.06
2023-03-11T02:08:30.009Z,-0.06
2023-03-11T02:11:03.138Z,-0.12
2023-03-11T02:13:40.326Z,-0.17
2023-03-11T02:16:13.986Z,-0.13
2023-03-11T02:18:47.927Z,-0.12
2023-03-11T02:21:27.934Z,-0.13
2023-03-11T02:24:12.904Z,-0.20
2023-03-11T02:26:51.981Z,-0.14
2023-03-11T02:29:25.984Z,-0.20
2023-03-11T02:31:59.541Z,-0.23
2023-03-11T02:34:36.290Z,-0.24
2023-03-11T02:37:11.568Z,-0.20
2023-03-11T02:39:46.144Z,-0.22
2023-03-11T02:42:24.778Z,-0.22
2023-03-11T02:45:02.401Z,-0.26
2023-03-11T02:47:35.692Z,-0.34
2023-03-11T02:50:10.481Z,-0.21
2023-03-11T02:52:42.252Z,-0.24
2023-03-11T02:55:16.082Z,-0.22
2023-03-11T02:57:49.421Z,-0.25
2023-03-11T03:00:22.044Z,-0.17
2023-03-11T03:02:54.019Z,-0.30
2023-03-11T03:05:26.496Z,-0.22
2023-03-11T03:07:58.326Z,-0.24
2023-03-11T03:10:30.272Z,-0.25
2023-03-11T03:13:03.173Z,-0.22
2023-03-11T03:15:36.085Z,-0.17
2023-03-11T03:18:07.920Z,-0.23
2023-03-11T03:20:39.818Z,-0.22
2023-03-11T03:23:11.587Z,-0.23
2023-03-11T03:25:45.290Z,-0.16
2023-03-11T03:28:18.554Z,-0.20
2023-03-11T03:30:50.534Z,-0.24
2023-03-11T03:33:22.390Z,-0.20
2023-03-11T03:35:54.283Z,-0.20
2023-03-11T03:38:25.980Z,-0.30
2023-03-11T03:40:57.927Z,-0.26
2023-03-11T03:43:31.045Z,-0.22
2023-03-11T03:46:05.812Z,-0.24
2023-03-11T03:48:38.140Z,-0.17
2023-03-11T03:51:12.890Z,-0.18
2023-03-11T03:53:46.413Z,-0.24
2023-03-11T03:56:21.672Z,-0.26
2023-03-11T03:58:55.087Z,-0.32
2023-03-11T04:01:26.663Z,-0.27
2023-03-11T04:03:58.562Z,-0.27
2023-03-11T04:06:31.858Z,-0.23
2023-03-11T04:09:03.741Z,-0.22
2023-03-11T04:11:36.946Z,-0.27
2023-03-11T04:14:10.385Z,-0.22
2023-03-11T04:16:42.617Z,-0.26
2023-03-11T04:19:14.788Z,-0.20
2023-03-11T04:21:46.613Z,-0.28
2023-03-11T04:24:18.436Z,-0.31
2023-03-11T04:26:50.345Z,-0.37
2023-03-11T04:29:23.285Z,-0.32
2023-03-11T04:31:55.135Z,-0.33
2023-03-11T04:34:26.931Z,-0.28
2023-03-11T04:36:59.238Z,-0.33
2023-03-11T04:39:31.042Z,-0.28
2023-03-11T04:42:04.058Z,-0.31
2023-03-11T04:44:38.436Z,-0.28
2023-03-11T04:47:10.435Z,-0.29
2023-03-11T04:49:42.488Z,-0.33
2023-03-11T04:52:14.554Z,-0.29
2023-03-11T04:54:46.490Z,-0.31
2023-03-11T04:57:18.542Z,-0.29
2023-03-11T04:59:51.772Z,-0.30
2023-03-11T05:02:23.570Z,-0.39
2023-03-11T05:04:55.396Z,-0.36
2023-03-11T05:07:27.382Z,-0.40
2023-03-11T05:09:59.150Z,-0.39
2023-03-11T05:12:30.932Z,-0.32
2023-03-11T05:15:04.250Z,-0.37
2023-03-11T05:17:36.203Z,-0.51
2023-03-11T05:20:09.294Z,-0.47
2023-03-11T05:22:40.975Z,-0.46
2023-03-11T05:25:13.648Z,-0.46
2023-03-11T05:27:45.620Z,-0.41
2023-03-11T05:30:19.632Z,-0.41
2023-03-11T05:32:51.804Z,-0.56
2023-03-11T05:35:23.882Z,-0.59
2023-03-11T05:37:55.839Z,-0.54
2023-03-11T05:40:27.457Z,-0.51
2023-03-11T05:42:59.279Z,-0.55
2023-03-11T05:45:32.250Z,-0.52
2023-03-11T05:48:04.223Z,-0.60
2023-03-11T05:50:36.095Z,-0.57
2023-03-11T05:53:07.943Z,-0.47
2023-03-11T05:55:39.784Z,-0.57
2023-03-11T05:58:11.767Z,-0.62
2023-03-11T06:00:44.909Z,-0.64
2023-03-11T06:03:16.717Z,-0.53
2023-03-11T06:05:52.674Z,-0.58
2023-03-11T06:08:24.980Z,-0.54
2023-03-11T06:11:04.785Z,-0.57
2023-03-11T06:13:36.963Z,-0.57
2023-03-11T06:16:09.959Z,-0.60
2023-03-11T06:18:41.872Z,-0.57
2023-03-11T06:21:18.749Z,-0.47
2023-03-11T06:23:51.856Z,-0.49
2023-03-11T06:26:26.502Z,-0.49
2023-03-11T06:28:58.750Z,-0.44
2023-03-11T06:31:34.868Z,-0.42
2023-03-11T06:34:06.622Z,-0.47
2023-03-11T06:36:38.528Z,-0.48
2023-03-11T06:39:12.961Z,-0.43
2023-03-11T06:41:44.843Z,-0.43
2023-03-11T06:44:17.059Z,-0.38
2023-03-11T06:46:50.245Z,-0.34
2023-03-11T06:49:21.868Z,-0.32
2023-03-11T06:51:53.726Z,-0.30
2023-03-11T06:54:25.596Z,-0.25
2023-03-11T06:56:57.397Z,-0.32
2023-03-11T06:59:29.212Z,-0.29
2023-03-11T07:02:02.455Z,-0.37
2023-03-11T07:04:34.620Z,-0.34
2023-03-11T07:07:06.175Z,-0.27
2023-03-11T07:09:38.064Z,-0.30
2023-03-11T07:12:10.859Z,-0.32
2023-03-11T07:14:42.832Z,-0.37
2023-03-11T07:17:15.793Z,-0.29
2023-03-11T07:19:47.665Z,-0.33
2023-03-11T07:22:20.056Z,-0.29
2023-03-11T07:24:51.942Z,-0.29
2023-03-11T07:27:23.741Z,-0.28
2023-03-11T07:29:55.622Z,-0.30
2023-03-11T07:32:28.664Z,-0.28
2023-03-11T07:35:03.089Z,-0.26
2023-03-11T07:37:34.917Z,-0.26
2023-03-11T07:40:06.922Z,-0.28
2023-03-11T07:42:40.325Z,-0.20
2023-03-11T07:45:15.270Z,-0.19
2023-03-11T07:47:48.254Z,-0.13
2023-03-11T07:50:22.125Z,-0.13
2023-03-11T07:52:53.736Z,-0.12
2023-03-11T07:55:27.139Z,-0.14
2023-03-11T07:57:59.038Z,-0.09
2023-03-11T08:00:30.712Z,-0.04
2023-03-11T08:03:03.889Z,-0.04
2023-03-11T08:05:38.670Z,-0.06
2023-03-11T08:08:12.088Z,-0.07
2023-03-11T08:10:43.968Z,-0.10
2023-03-11T08:13:15.828Z,-0.04
2023-03-11T08:15:47.721Z,-0.20
2023-03-11T08:18:20.749Z,-0.10
2023-03-11T08:20:52.549Z,-0.09
2023-03-11T08:23:24.371Z,-0.10
2023-03-11T08:25:56.217Z,0.03
2023-03-11T08:28:28.126Z,0.07
2023-03-11T08:30:59.930Z,0.10
2023-03-11T08:33:32.931Z,0.09
2023-03-11T08:36:04.990Z,0.13
2023-03-11T08:38:36.880Z,0.24
2023-03-11T08:41:09.347Z,0.37
2023-03-11T08:43:42.248Z,0.48
2023-03-11T08:46:21.227Z,0.63
2023-03-11T08:48:55.310Z,0.72
2023-03-11T08:51:27.244Z,0.81
2023-03-11T08:53:59.242Z,0.87
2023-03-11T08:56:31.328Z,0.96
2023-03-11T08:59:03.569Z,1.00
2023-03-11T09:01:35.452Z,1.10
2023-03-11T09:04:09.671Z,1.09
2023-03-11T09:06:44.752Z,1.16
2023-03-11T09:09:20.330Z,1.19
2023-03-11T09:11:51.968Z,1.21
2023-03-11T09:14:23.789Z,1.30
2023-03-11T09:16:55.717Z,1.37
2023-03-11T09:19:28.897Z,1.39
2023-03-11T09:22:02.854Z,1.43
2023-03-11T09:24:36.082Z,1.28
2023-03-11T09:27:07.665Z,1.45
2023-03-11T09:29:39.657Z,1.44
2023-03-11T09:32:15.162Z,1.53
2023-03-11T09:34:48.101Z,1.44
2023-03-11T09:37:19.943Z,1.53
2023-03-11T09:39:51.844Z,1.63
2023-03-11T09:42:35.142Z,1.70
2023-03-11T09:45:16.581Z,1.73
2023-03-11T09:48:08.243Z,1.80
2023-03-11T09:50:52.830Z,1.85
2023-03-11T09:53:33.957Z,1.96
2023-03-11T09:56:10.402Z,1.99
2023-03-11T09:58:47.985Z,1.99
2023-03-11T10:01:27.573Z,1.93
2023-03-11T10:04:09.821Z,2.00
2023-03-11T10:06:46.020Z,2.08
2023-03-11T10:09:34.368Z,2.20
2023-03-11T10:12:19.462Z,2.26
2023-03-11T10:15:09.348Z,2.28
2023-03-11T10:18:02.183Z,2.14
2023-03-11T10:20:43.857Z,2.28
2023-03-11T10:23:33.690Z,2.36
2023-03-11T10:26:13.088Z,2.41
2023-03-11T10:28:52.113Z,2.37
2023-03-11T10:31:32.828Z,2.46
2023-03-11T10:34:15.489Z,2.44
2023-03-11T10:36:58.804Z,2.49
2023-03-11T10:39:33.703Z,2.54
2023-03-11T10:42:12.779Z,2.59
2023-03-11T10:44:46.743Z,2.60
2023-03-11T10:47:25.260Z,2.57
2023-03-11T10:49:57.182Z,2.65
2023-03-11T10:52:29.146Z,2.69
2023-03-11T10:55:07.223Z,2.76
2023-03-11T10:57:41.373Z,2.67
2023-03-11T11:00:29.021Z,2.73
2023-03-11T11:03:02.059Z,2.67
2023-03-11T11:05:37.811Z,2.64
2023-03-11T11:08:16.994Z,2.76
2023-03-11T11:10:59.542Z,2.93
2023-03-11T11:13:36.033Z,2.98
2023-03-11T11:16:20.808Z,3.06
2023-03-11T11:18:58.664Z,3.12
2023-03-11T11:21:39.277Z,3.20
2023-03-11T11:24:24.987Z,3.22
2023-03-11T11:27:20.348Z,3.19
2023-03-11T11:30:14.654Z,3.19
2023-03-11T11:32:46.483Z,3.21
2023-03-11T11:35:20.904Z,3.31
2023-03-11T11:37:56.668Z,3.33
2023-03-11T11:40:36.013Z,3.25
2023-03-11T11:43:18.025Z,3.42
2023-03-11T11:45:58.764Z,3.54
2023-03-11T11:48:43.990Z,3.65
2023-03-11T11:51:23.000Z,3.69
2023-03-11T11:54:02.659Z,3.69
2023-03-11T11:56:34.706Z,3.73
2023-03-11T11:59:10.597Z,3.86
2023-03-11T12:01:57.022Z,3.90
2023-03-11T12:04:50.346Z,3.94
2023-03-11T12:08:06.650Z,4.07
2023-03-11T12:10:45.164Z,4.19
2023-03-11T12:13:50.046Z,4.28
2023-03-11T12:16:37.768Z,4.30
2023-03-11T12:19:21.726Z,4.27
2023-03-11T12:22:28.115Z,4.24
2023-03-11T12:25:23.248Z,4.20
2023-03-11T12:27:59.509Z,4.25
2023-03-11T12:30:38.258Z,4.32
2023-03-11T12:33:19.752Z,4.42
2023-03-11T12:36:00.598Z,4.39
2023-03-11T12:38:37.721Z,4.51
2023-03-11T12:41:29.006Z,4.60
2023-03-11T12:44:14.105Z,4.45
2023-03-11T12:47:29.741Z,4.70
2023-03-11T12:50:40.669Z,4.73
2023-03-11T12:53:21.282Z,4.71
2023-03-11T12:56:14.671Z,4.81
2023-03-11T12:59:25.236Z,4.82
2023-03-11T13:02:14.736Z,5.01
2023-03-11T13:04:58.730Z,4.92
2023-03-11T13:08:01.074Z,5.11
2023-03-11T13:10:42.954Z,5.11
2023-03-11T13:13:39.919Z,5.01
2023-03-11T13:16:42.138Z,5.06
2023-03-11T13:19:38.859Z,5.07
2023-03-11T13:22:43.433Z,4.76
2023-03-11T13:25:32.027Z,4.79
2023-03-11T13:28:42.588Z,5.04
2023-03-11T13:31:40.158Z,5.04
2023-03-11T13:34:18.857Z,5.04
2023-03-11T13:37:13.756Z,5.12
2023-03-11T13:40:14.100Z,5.23
2023-03-11T13:42:51.776Z,5.22
2023-03-11T13:45:36.157Z,4.99
2023-03-11T13:48:15.885Z,5.01
2023-03-11T13:50:54.162Z,5.25
2023-03-11T13:53:31.085Z,5.36
2023-03-11T13:56:05.632Z,5.30
2023-03-11T13:58:37.184Z,5.55
2023-03-11T14:01:18.311Z,5.32
2023-03-11T14:03:52.773Z,5.47
2023-03-11T14:06:25.189Z,5.71
2023-03-11T14:09:01.091Z,5.88
2023-03-11T14:11:34.739Z,5.94
2023-03-11T14:14:36.317Z,5.85
2023-03-11T14:17:13.948Z,5.84
2023-03-11T14:20:07.600Z,5.55
2023-03-11T14:22:39.702Z,5.80
2023-03-11T14:25:20.751Z,5.95
2023-03-11T14:28:08.623Z,6.05
2023-03-11T14:30:42.096Z,5.89
2023-03-11T14:33:24.625Z,5.77
2023-03-11T14:36:01.477Z,5.96
2023-03-11T14:38:35.665Z,5.94
2023-03-11T14:41:14.206Z,6.00
2023-03-11T14:43:53.671Z,5.95
2023-03-11T14:46:30.861Z,5.96
2023-03-11T14:49:08.616Z,5.87
2023-03-11T14:51:42.333Z,5.96
2023-03-11T14:54:24.304Z,5.46
2023-03-11T14:57:05.552Z,5.37
2023-03-11T14:59:41.927Z,5.26
2023-03-11T15:02:35.689Z,5.56
2023-03-11T15:05:17.804Z,5.50
2023-03-11T15:07:51.678Z,5.71
2023-03-11T15:10:25.212Z,5.83
2023-03-11T15:13:11.731Z,5.96
2023-03-11T15:15:45.966Z,5.76
2023-03-11T15:18:27.254Z,5.93
2023-03-11T15:21:18.542Z,5.75
2023-03-11T15:23:53.871Z,5.68
2023-03-11T15:26:30.912Z,5.77
2023-03-11T15:29:13.956Z,5.39
2023-03-11T15:31:50.253Z,5.39
2023-03-11T15:34:35.129Z,5.20
2023-03-11T15:37:22.733Z,5.16
2023-03-11T15:39:58.423Z,5.16
2023-03-11T15:42:31.369Z,5.34
2023-03-11T15:45:30.127Z,5.55
2023-03-11T15:48:03.227Z,5.27
2023-03-11T15:50:52.406Z,5.15
2023-03-11T15:53:27.160Z,4.84
2023-03-11T15:56:07.981Z,4.83
2023-03-11T15:58:41.043Z,4.73
2023-03-11T16:01:12.904Z,4.77
2023-03-11T16:03:46.204Z,4.77
2023-03-11T16:06:18.151Z,4.82
2023-03-11T16:08:50.037Z,4.74
2023-03-11T16:11:22.429Z,4.67
2023-03-11T16:13:54.295Z,4.36
2023-03-11T16:16:26.438Z,4.23
2023-03-11T16:18:59.715Z,4.02
2023-03-11T16:21:41.147Z,3.98
2023-03-11T16:24:21.894Z,3.89
2023-03-11T16:26:56.784Z,3.79
2023-03-11T16:29:28.655Z,3.81
2023-03-11T16:32:00.501Z,3.68
2023-03-11T16:34:33.374Z,3.70
2023-03-11T16:37:05.302Z,3.58
2023-03-11T16:39:38.808Z,3.61
2023-03-11T16:42:10.831Z,3.54
2023-03-11T16:44:42.608Z,3.51
2023-03-11T16:47:14.442Z,3.50
2023-03-11T16:49:50.390Z,3.47
2023-03-11T16:52:23.422Z,3.46
2023-03-11T16:54:55.277Z,3.46
2023-03-11T16:57:27.122Z,3.43
2023-03-11T16:59:59.134Z,3.39
2023-03-11T17:02:31.269Z,3.33
2023-03-11T17:05:05.709Z,3.30
2023-03-11T17:07:39.903Z,3.22
2023-03-11T17:10:14.492Z,3.16
2023-03-11T17:12:46.376Z,3.16
2023-03-11T17:15:18.438Z,3.08
2023-03-11T17:17:51.432Z,2.99
2023-03-11T17:20:25.229Z,2.91
2023-03-11T17:22:57.109Z,2.79
2023-03-11T17:25:29.024Z,2.78
2023-03-11T17:28:01.017Z,2.77
2023-03-11T17:30:37.161Z,2.77
2023-03-11T17:33:12.441Z,2.74
2023-03-11T17:35:46.209Z,2.74
2023-03-11T17:38:19.580Z,2.69
2023-03-11T17:40:51.393Z,2.59
2023-03-11T17:43:25.297Z,2.51
2023-03-11T17:45:59.110Z,2.59
2023-03-11T17:48:30.919Z,2.40
2023-03-11T17:51:05.969Z,2.37
2023-03-11T17:53:38.078Z,2.35
2023-03-11T17:56:13.191Z,2.33
2023-03-11T17:58:45.104Z,2.22
2023-03-11T18:01:20.754Z,2.16
2023-03-11T18:03:53.664Z,2.14
2023-03-11T18:06:28.546Z,2.09
2023-03-11T18:09:00.335Z,2.11
2023-03-11T18:11:33.477Z,2.15
2023-03-11T18:14:07.197Z,2.21
2023-03-11T18:16:40.295Z,2.14
2023-03-11T18:19:12.463Z,2.14
2023-03-11T18:21:45.704Z,2.09
2023-03-11T18:24:17.925Z,1.92
2023-03-11T18:26:49.908Z,1.92
2023-03-11T18:29:21.945Z,1.86
2023-03-11T18:31:53.788Z,1.85
2023-03-11T18:34:25.662Z,1.87
2023-03-11T18:36:58.797Z,1.92
2023-03-11T18:39:30.747Z,1.89
2023-03-11T18:42:03.110Z,1.81
2023-03-11T18:44:36.918Z,1.67
2023-03-11T18:47:09.130Z,1.58
2023-03-11T18:49:41.029Z,1.48
2023-03-11T18:52:14.967Z,1.51
2023-03-11T18:54:47.030Z,1.41
2023-03-11T18:57:19.070Z,1.37
2023-03-11T18:59:52.435Z,1.45
2023-03-11T19:02:24.359Z,1.52
2023-03-11T19:04:56.420Z,1.51
2023-03-11T19:07:30.757Z,1.57
2023-03-11T19:10:02.627Z,1.54
2023-03-11T19:12:34.485Z,1.48
2023-03-11T19:15:06.556Z,1.47
2023-03-11T19:17:38.496Z,1.48
2023-03-11T19:20:12.932Z,1.43
2023-03-11T19:22:45.920Z,1.38
2023-03-11T19:25:19.115Z,1.33
2023-03-11T19:27:50.835Z,1.28
2023-03-11T19:30:22.940Z,1.15
2023-03-11T19:32:54.761Z,1.14
2023-03-11T19:35:27.717Z,1.10
2023-03-11T19:38:00.790Z,1.06
2023-03-11T19:40:33.412Z,1.01
2023-03-11T19:43:05.949Z,1.08
2023-03-11T19:45:39.676Z,1.05
2023-03-11T19:48:13.213Z,1.03
2023-03-11T19:50:45.320Z,1.03
2023-03-11T19:53:19.334Z,0.93
2023-03-11T19:55:54.365Z,0.93
2023-03-11T19:58:30.525Z,0.82
2023-03-11T20:01:03.863Z,0.85
2023-03-11T20:03:35.758Z,0.76
2023-03-11T20:06:13.434Z,0.75
2023-03-11T20:08:47.343Z,0.69
2023-03-11T20:11:19.350Z,0.72
2023-03-11T20:13:51.468Z,0.66
2023-03-11T20:16:24.166Z,0.66
2023-03-11T20:18:56.075Z,0.64
2023-03-11T20:21:28.076Z,0.58
2023-03-11T20:24:01.675Z,0.63
2023-03-11T20:26:33.642Z,0.56
2023-03-11T20:29:06.273Z,0.61
2023-03-11T20:31:38.164Z,0.63
2023-03-11T20:34:10.451Z,0.59
2023-03-11T20:36:42.648Z,0.58
2023-03-11T20:39:16.042Z,0.60
2023-03-11T20:41:47.805Z,0.56
2023-03-11T20:44:19.760Z,0.48
2023-03-11T20:46:51.882Z,0.49
2023-03-11T20:49:23.551Z,0.46
2023-03-11T20:51:55.592Z,0.46
2023-03-11T20:54:28.552Z,0.50
2023-03-11T20:57:00.484Z,0.45
2023-03-11T20:59:32.407Z,0.45
2023-03-11T21:02:06.330Z,0.38
2023-03-11T21:04:41.120Z,0.38
2023-03-11T21:07:13.062Z,0.29
2023-03-11T21:09:46.156Z,0.34
2023-03-11T21:12:18.299Z,0.33
2023-03-11T21:14:50.485Z,0.27
2023-03-11T21:17:22.575Z,0.26
2023-03-11T21:19:54.429Z,0.21
2023-03-11T21:22:26.310Z,0.20
2023-03-11T21:24:59.925Z,0.20
2023-03-11T21:27:31.813Z,0.21
2023-03-11T21:30:04.304Z,0.20
2023-03-11T21:32:36.346Z,0.09
2023-03-11T21:35:09.709Z,0.10
2023-03-11T21:37:41.641Z,0.10
2023-03-11T21:40:15.956Z,0.11
2023-03-11T21:42:47.851Z,0.08
2023-03-11T21:45:19.870Z,0.06
2023-03-11T21:47:51.827Z,0.09
2023-03-11T21:50:23.926Z,0.10
2023-03-11T21:52:55.673Z,0.05
2023-03-11T21:55:29.274Z,0.04
2023-03-11T21:58:01.013Z,0.07
2023-03-11T22:00:33.284Z,0.02
2023-03-11T22:03:05.088Z,0.00
2023-03-11T22:05:36.831Z,0.02
2023-03-11T22:08:09.068Z,0.01
2023-03-11T22:10:42.412Z,0.03
2023-03-11T22:13:14.292Z,-0.08
2023-03-11T22:15:46.368Z,-0.04
2023-03-11T22:18:18.048Z,-0.12
2023-03-11T22:20:49.898Z,-0.11
2023-03-11T22:23:21.668Z,-0.05
2023-03-11T22:25:55.109Z,-0.09
2023-03-11T22:28:27.267Z,-0.03
2023-03-11T22:30:59.184Z,-0.07
2023-03-11T22:33:31.408Z,-0.12
2023-03-11T22:36:07.667Z,-0.05
2023-03-11T22:38:42.231Z,-0.06
2023-03-11T22:41:19.177Z,-0.12
2023-03-11T22:43:51.011Z,-0.18
2023-03-11T22:46:22.962Z,-0.16
2023-03-11T22:48:54.855Z,-0.14
2023-03-11T22:51:26.842Z,-0.12
2023-03-11T22:53:58.670Z,-0.08
2023-03-11T22:56:31.629Z,-0.10
2023-03-11T22:59:03.569Z,-0.05
2023-03-11T23:01:35.944Z,-0.06
2023-03-11T23:04:07.837Z,-0.02
2023-03-11T23:06:39.661Z,-0.07
2023-03-11T23:09:11.586Z,-0.12
2023-03-11T23:11:44.860Z,-0.20
2023-03-11T23:14:16.979Z,-0.26
2023-03-11T23:16:48.998Z,-0.30
2023-03-11T23:19:20.786Z,-0.31
2023-03-11T23:21:52.562Z,-0.31
2023-03-11T23:24:24.591Z,-0.28
2023-03-11T23:26:57.758Z,-0.35
2023-03-11T23:29:29.766Z,-0.31
2023-03-11T23:32:01.444Z,-0.41
2023-03-11T23:34:33.268Z,-0.41
2023-03-11T23:37:05.987Z,-0.39
2023-03-11T23:39:37.614Z,-0.42
2023-03-11T23:42:24.558Z,-0.45
2023-03-11T23:44:57.796Z,-0.53
2023-03-11T23:47:29.746Z,-0.49
2023-03-11T23:50:03.150Z,-0.54
2023-03-11T23:52:34.991Z,-0.62
2023-03-11T23:55:08.417Z,-0.65
2023-03-11T23:57:41.914Z,-0.60
